createdAt,value
2018-06-14T00:00:47.389Z,16.08
2018-06-14T00:01:47.295Z,16.10
2018-06-14T00:02:47.192Z,16.05
2018-06-14T00:03:47.100Z,16.09
2018-06-14T00:04:46.998Z,16.16
2018-06-14T00:05:46.908Z,16.12
2018-06-14T00:06:46.815Z,16.13
2018-06-14T00:07:46.712Z,16.10
2018-06-14T00:08:46.622Z,16.09
2018-06-14T00:09:46.519Z,16.09
2018-06-14T00:10:46.428Z,16.02
2018-06-14T00:11:46.338Z,15.98
2018-06-14T00:12:46.234Z,16.04
2018-06-14T00:13:46.144Z,16.01
2018-06-14T00:14:46.040Z,16.01
2018-06-14T00:15:45.949Z,16.04
2018-06-14T00:16:45.857Z,16.00
2018-06-14T00:17:46.007Z,16.01
2018-06-14T00:18:45.665Z,16.02
2018-06-14T00:19:45.561Z,16.04
2018-06-14T00:20:45.470Z,15.92
2018-06-14T00:21:45.370Z,16.02
2018-06-14T00:22:45.276Z,16.00
2018-06-14T00:23:45.184Z,15.98
2018-06-14T00:24:45.081Z,16.08
2018-06-14T00:25:44.991Z,15.94
2018-06-14T00:26:44.899Z,16.00
2018-06-14T00:27:44.796Z,16.04
2018-06-14T00:28:44.706Z,15.98
2018-06-14T00:29:44.603Z,15.91
2018-06-14T00:30:44.511Z,15.94
2018-06-14T00:31:44.411Z,15.90
2018-06-14T00:32:44.318Z,15.90
2018-06-14T00:33:44.228Z,15.88
2018-06-14T00:34:44.123Z,15.90
2018-06-14T00:35:44.033Z,15.86
2018-06-14T00:36:43.930Z,15.86
2018-06-14T00:37:44.138Z,15.90
2018-06-14T00:38:43.747Z,15.83
2018-06-14T00:39:43.646Z,15.76
2018-06-14T00:40:43.554Z,15.82
2018-06-14T00:41:43.450Z,15.76
2018-06-14T00:42:43.359Z,15.75
2018-06-14T00:43:43.268Z,15.82
2018-06-14T00:44:43.164Z,15.82
2018-06-14T00:45:43.075Z,15.72
2018-06-14T00:46:42.971Z,15.70
2018-06-14T00:47:42.879Z,15.73
2018-06-14T00:48:42.778Z,15.77
2018-06-14T00:49:42.686Z,15.77
2018-06-14T00:50:42.594Z,15.76
2018-06-14T00:51:42.491Z,15.73
2018-06-14T00:52:42.401Z,15.70
2018-06-14T00:53:42.298Z,15.72
2018-06-14T00:54:42.219Z,15.77
2018-06-14T00:55:42.118Z,15.75
2018-06-14T00:56:42.013Z,15.77
2018-06-14T00:57:42.221Z,15.73
2018-06-14T00:58:41.818Z,15.72
2018-06-14T00:59:41.728Z,15.70
2018-06-14T01:00:41.636Z,15.75
2018-06-14T01:01:41.533Z,15.79
2018-06-14T01:02:41.444Z,15.77
2018-06-14T01:03:41.339Z,15.80
2018-06-14T01:04:41.248Z,15.77
2018-06-14T01:05:41.145Z,15.73
2018-06-14T01:06:41.054Z,15.73
2018-06-14T01:07:41.213Z,15.77
2018-06-14T01:08:40.860Z,15.72
2018-06-14T01:09:40.770Z,15.82
2018-06-14T01:10:40.666Z,15.72
2018-06-14T01:11:40.577Z,15.65
2018-06-14T01:12:40.484Z,15.72
2018-06-14T01:13:40.382Z,15.70
2018-06-14T01:14:40.293Z,15.72
2018-06-14T01:15:40.186Z,15.65
2018-06-14T01:16:40.097Z,15.70
2018-06-14T01:17:40.007Z,15.65
2018-06-14T01:18:39.902Z,15.65
2018-06-14T01:19:39.815Z,15.67
2018-06-14T01:20:39.711Z,15.65
2018-06-14T01:21:39.617Z,15.62
2018-06-14T01:22:39.763Z,15.64
2018-06-14T01:23:39.424Z,15.67
2018-06-14T01:24:39.332Z,15.64
2018-06-14T01:25:39.229Z,15.61
2018-06-14T01:26:39.139Z,15.62
2018-06-14T01:27:39.035Z,15.64
2018-06-14T01:28:38.943Z,15.68
2018-06-14T01:29:38.840Z,15.64
2018-06-14T01:30:38.750Z,15.67
2018-06-14T01:31:38.663Z,15.67
2018-06-14T01:32:38.559Z,15.68
2018-06-14T01:33:38.465Z,15.64
2018-06-14T01:34:38.362Z,15.62
2018-06-14T01:35:38.271Z,15.72
2018-06-14T01:36:38.168Z,15.58
2018-06-14T01:37:38.077Z,15.58
2018-06-14T01:38:37.986Z,15.54
2018-06-14T01:39:37.882Z,15.55
2018-06-14T01:40:37.791Z,15.62
2018-06-14T01:41:37.692Z,15.58
2018-06-14T01:42:37.597Z,15.49
2018-06-14T01:43:37.495Z,15.52
2018-06-14T01:44:37.404Z,15.49
2018-06-14T01:45:37.312Z,15.42
2018-06-14T01:46:37.209Z,15.40
2018-06-14T01:47:37.119Z,15.36
2018-06-14T01:48:37.016Z,15.27
2018-06-14T01:49:36.924Z,15.21
2018-06-14T01:50:36.822Z,15.14
2018-06-14T01:51:36.730Z,15.11
2018-06-14T01:52:36.639Z,15.11
2018-06-14T01:53:36.536Z,14.94
2018-06-14T01:54:36.446Z,14.86
2018-06-14T01:55:36.348Z,14.92
2018-06-14T01:56:36.251Z,14.89
2018-06-14T01:57:36.148Z,14.73
2018-06-14T01:58:36.058Z,14.73
2018-06-14T01:59:35.970Z,14.65
2018-06-14T02:00:35.863Z,14.59
2018-06-14T02:01:35.773Z,14.53
2018-06-14T02:02:35.668Z,14.60
2018-06-14T02:03:35.578Z,14.50
2018-06-14T02:04:35.474Z,14.45
2018-06-14T02:05:35.385Z,14.40
2018-06-14T02:06:35.281Z,14.50
2018-06-14T02:07:35.204Z,14.40
2018-06-14T02:08:35.086Z,14.36
2018-06-14T02:09:34.996Z,14.43
2018-06-14T02:10:34.896Z,14.29
2018-06-14T02:11:34.802Z,14.28
2018-06-14T02:12:34.698Z,14.30
2018-06-14T02:13:34.608Z,14.26
2018-06-14T02:14:34.504Z,14.26
2018-06-14T02:15:34.413Z,14.29
2018-06-14T02:16:34.310Z,14.23
2018-06-14T02:17:34.219Z,14.23
2018-06-14T02:18:34.119Z,14.20
2018-06-14T02:19:34.025Z,14.20
2018-06-14T02:20:33.922Z,14.17
2018-06-14T02:21:33.833Z,14.18
2018-06-14T02:22:33.730Z,14.30
2018-06-14T02:23:33.637Z,14.20
2018-06-14T02:24:33.537Z,14.22
2018-06-14T02:25:33.447Z,14.15
2018-06-14T02:26:33.340Z,14.12
2018-06-14T02:27:33.248Z,14.08
2018-06-14T02:28:33.145Z,14.10
2018-06-14T02:29:33.056Z,14.08
2018-06-14T02:30:32.952Z,14.05
2018-06-14T02:31:32.861Z,13.99
2018-06-14T02:32:32.757Z,13.99
2018-06-14T02:33:32.667Z,14.00
2018-06-14T02:34:32.564Z,14.04
2018-06-14T02:35:32.472Z,13.95
2018-06-14T02:36:32.368Z,13.99
2018-06-14T02:37:32.279Z,13.93
2018-06-14T02:38:32.176Z,13.95
2018-06-14T02:39:32.085Z,13.89
2018-06-14T02:40:31.980Z,13.87
2018-06-14T02:41:31.891Z,13.81
2018-06-14T02:42:31.791Z,13.78
2018-06-14T02:43:31.695Z,13.71
2018-06-14T02:44:31.593Z,13.78
2018-06-14T02:45:31.494Z,13.77
2018-06-14T02:46:31.401Z,13.72
2018-06-14T02:47:31.308Z,13.70
2018-06-14T02:48:31.204Z,13.74
2018-06-14T02:49:31.101Z,13.60
2018-06-14T02:50:31.016Z,13.63
2018-06-14T02:51:30.908Z,13.59
2018-06-14T02:52:31.119Z,13.57
2018-06-14T02:53:30.717Z,13.52
2018-06-14T02:54:30.623Z,13.42
2018-06-14T02:55:30.522Z,13.49
2018-06-14T02:56:30.429Z,13.49
2018-06-14T02:57:30.324Z,13.47
2018-06-14T02:58:30.240Z,13.46
2018-06-14T02:59:30.131Z,13.42
2018-06-14T03:00:30.028Z,13.33
2018-06-14T03:01:29.939Z,13.23
2018-06-14T03:02:30.152Z,13.19
2018-06-14T03:03:29.745Z,13.30
2018-06-14T03:04:29.640Z,13.20
2018-06-14T03:05:29.548Z,13.19
2018-06-14T03:06:29.445Z,13.11
2018-06-14T03:07:29.355Z,13.20
2018-06-14T03:08:29.250Z,13.09
2018-06-14T03:09:29.147Z,13.12
2018-06-14T03:10:29.056Z,13.08
2018-06-14T03:11:28.956Z,13.04
2018-06-14T03:12:28.864Z,13.00
2018-06-14T03:13:28.760Z,13.00
2018-06-14T03:14:28.668Z,13.00
2018-06-14T03:15:28.580Z,13.01
2018-06-14T03:16:28.475Z,12.94
2018-06-14T03:17:28.373Z,13.11
2018-06-14T03:18:28.269Z,13.03
2018-06-14T03:19:28.177Z,13.04
2018-06-14T03:20:28.080Z,13.11
2018-06-14T03:21:27.983Z,13.12
2018-06-14T03:22:27.879Z,13.11
2018-06-14T03:23:27.787Z,13.19
2018-06-14T03:24:27.684Z,13.16
2018-06-14T03:25:27.581Z,13.19
2018-06-14T03:26:27.491Z,13.35
2018-06-14T03:27:27.388Z,13.23
2018-06-14T03:28:27.296Z,13.28
2018-06-14T03:29:27.193Z,13.23
2018-06-14T03:30:27.091Z,13.39
2018-06-14T03:31:27.000Z,13.46
2018-06-14T03:32:26.899Z,13.46
2018-06-14T03:33:26.805Z,13.47
2018-06-14T03:34:26.701Z,13.57
2018-06-14T03:35:26.611Z,13.53
2018-06-14T03:36:26.512Z,13.46
2018-06-14T03:37:26.416Z,13.57
2018-06-14T03:38:26.312Z,13.60
2018-06-14T03:39:26.210Z,13.49
2018-06-14T03:40:26.119Z,13.54
2018-06-14T03:41:26.016Z,13.54
2018-06-14T03:42:25.925Z,13.59
2018-06-14T03:43:25.821Z,13.57
2018-06-14T03:44:25.731Z,13.60
2018-06-14T03:45:25.629Z,13.63
2018-06-14T03:46:25.548Z,13.67
2018-06-14T03:47:25.432Z,13.71
2018-06-14T03:48:25.330Z,13.70
2018-06-14T03:49:25.240Z,13.70
2018-06-14T03:50:25.136Z,13.71
2018-06-14T03:51:25.048Z,13.72
2018-06-14T03:52:24.942Z,13.75
2018-06-14T03:53:24.854Z,13.86
2018-06-14T03:54:24.748Z,13.86
2018-06-14T03:55:24.656Z,13.89
2018-06-14T03:56:24.567Z,13.95
2018-06-14T03:57:24.462Z,13.87
2018-06-14T03:58:24.403Z,13.81
2018-06-14T03:59:24.283Z,13.89
2018-06-14T04:00:24.166Z,13.92
2018-06-14T04:01:24.063Z,14.03
2018-06-14T04:02:23.972Z,13.95
2018-06-14T04:03:23.870Z,13.97
2018-06-14T04:04:23.777Z,14.11
2018-06-14T04:05:23.674Z,14.11
2018-06-14T04:06:23.584Z,14.15
2018-06-14T04:07:23.480Z,14.22
2018-06-14T04:08:23.388Z,14.22
2018-06-14T04:09:23.285Z,14.36
2018-06-14T04:10:23.232Z,14.43
2018-06-14T04:11:23.091Z,14.44
2018-06-14T04:12:23.001Z,14.44
2018-06-14T04:13:22.896Z,14.51
2018-06-14T04:14:22.807Z,14.58
2018-06-14T04:15:22.704Z,14.51
2018-06-14T04:16:22.613Z,14.50
2018-06-14T04:17:22.809Z,14.54
2018-06-14T04:18:22.419Z,14.60
2018-06-14T04:19:22.315Z,14.63
2018-06-14T04:20:22.268Z,14.65
2018-06-14T04:21:22.121Z,14.68
2018-06-14T04:22:22.031Z,14.69
2018-06-14T04:23:21.927Z,14.77
2018-06-14T04:24:21.836Z,14.82
2018-06-14T04:25:21.733Z,14.78
2018-06-14T04:26:21.642Z,14.81
2018-06-14T04:27:21.578Z,14.81
2018-06-14T04:28:21.447Z,14.82
2018-06-14T04:29:21.359Z,14.82
2018-06-14T04:30:21.254Z,14.78
2018-06-14T04:31:21.162Z,14.88
2018-06-14T04:32:21.059Z,14.78
2018-06-14T04:33:20.969Z,14.88
2018-06-14T04:34:20.865Z,14.91
2018-06-14T04:35:20.787Z,14.91
2018-06-14T04:36:20.671Z,15.06
2018-06-14T04:37:20.831Z,15.03
2018-06-14T04:38:20.481Z,15.06
2018-06-14T04:39:20.424Z,15.17
2018-06-14T04:40:20.284Z,15.14
2018-06-14T04:41:20.193Z,15.11
2018-06-14T04:42:20.101Z,15.21
2018-06-14T04:43:19.998Z,15.17
2018-06-14T04:44:19.908Z,15.18
2018-06-14T04:45:19.805Z,15.14
2018-06-14T04:46:19.713Z,15.27
2018-06-14T04:47:19.610Z,15.29
2018-06-14T04:48:19.519Z,15.33
2018-06-14T04:49:19.428Z,15.35
2018-06-14T04:50:19.324Z,15.42
2018-06-14T04:51:19.238Z,15.44
2018-06-14T04:52:19.132Z,15.42
2018-06-14T04:53:19.054Z,15.47
2018-06-14T04:54:18.936Z,15.47
2018-06-14T04:55:18.848Z,15.52
2018-06-14T04:56:18.754Z,15.68
2018-06-14T04:57:18.957Z,15.73
2018-06-14T04:58:18.562Z,15.70
2018-06-14T04:59:18.459Z,15.70
2018-06-14T05:00:18.367Z,15.77
2018-06-14T05:01:18.264Z,15.79
2018-06-14T05:02:18.219Z,15.65
2018-06-14T05:03:18.082Z,15.64
2018-06-14T05:04:17.978Z,15.76
2018-06-14T05:05:17.888Z,15.76
2018-06-14T05:06:17.786Z,15.86
2018-06-14T05:07:17.694Z,15.83
2018-06-14T05:08:17.604Z,15.77
2018-06-14T05:09:17.501Z,15.84
2018-06-14T05:10:17.409Z,15.91
2018-06-14T05:11:17.308Z,15.92
2018-06-14T05:12:17.215Z,15.94
2018-06-14T05:13:17.124Z,15.94
2018-06-14T05:14:17.020Z,16.02
2018-06-14T05:15:16.930Z,16.05
2018-06-14T05:16:16.827Z,16.21
2018-06-14T05:17:16.735Z,16.26
2018-06-14T05:18:16.646Z,16.21
2018-06-14T05:19:16.543Z,16.26
2018-06-14T05:20:16.471Z,16.32
2018-06-14T05:21:16.361Z,16.39
2018-06-14T05:22:16.257Z,16.33
2018-06-14T05:23:16.166Z,16.24
2018-06-14T05:24:16.075Z,16.17
2018-06-14T05:25:15.973Z,16.17
2018-06-14T05:26:15.881Z,16.15
2018-06-14T05:27:15.780Z,16.39
2018-06-14T05:28:15.687Z,16.31
2018-06-14T05:29:15.596Z,16.50
2018-06-14T05:30:15.497Z,16.43
2018-06-14T05:31:15.403Z,16.41
2018-06-14T05:32:15.311Z,16.54
2018-06-14T05:33:15.209Z,16.75
2018-06-14T05:34:15.118Z,16.83
2018-06-14T05:35:15.026Z,16.78
2018-06-14T05:36:14.925Z,16.96
2018-06-14T05:37:14.832Z,16.86
2018-06-14T05:38:14.828Z,16.87
2018-06-14T05:39:14.638Z,16.94
2018-06-14T05:40:14.550Z,17.11
2018-06-14T05:41:14.469Z,17.15
2018-06-14T05:42:14.389Z,17.38
2018-06-14T05:43:14.264Z,17.42
2018-06-14T05:44:14.172Z,17.41
2018-06-14T05:45:14.070Z,17.26
2018-06-14T05:46:13.978Z,17.19
2018-06-14T05:47:13.888Z,17.70
2018-06-14T05:48:13.797Z,17.85
2018-06-14T05:49:13.694Z,17.68
2018-06-14T05:50:13.601Z,17.63
2018-06-14T05:51:13.512Z,17.65
2018-06-14T05:52:13.420Z,17.57
2018-06-14T05:53:13.317Z,17.64
2018-06-14T05:54:13.226Z,17.59
2018-06-14T05:55:13.135Z,17.90
2018-06-14T05:56:13.057Z,17.82
2018-06-14T05:57:12.942Z,17.51
2018-06-14T05:58:12.854Z,18.59
2018-06-14T05:59:12.761Z,19.33
2018-06-14T06:00:12.670Z,19.84
2018-06-14T06:01:12.566Z,20.28
2018-06-14T06:02:12.725Z,20.52
2018-06-14T06:03:12.384Z,20.81
2018-06-14T06:04:12.294Z,21.42
2018-06-14T06:05:12.202Z,22.10
2018-06-14T06:06:12.112Z,22.45
2018-06-14T06:07:12.020Z,22.33
2018-06-14T06:08:11.917Z,22.28
2018-06-14T06:09:11.831Z,22.14
2018-06-14T06:10:11.735Z,21.99
2018-06-14T06:11:11.646Z,22.36
2018-06-14T06:12:11.554Z,22.44
2018-06-14T06:13:11.464Z,23.18
2018-06-14T06:14:11.374Z,22.80
2018-06-14T06:15:11.285Z,23.17
2018-06-14T06:16:11.191Z,22.99
2018-06-14T06:17:11.101Z,22.88
2018-06-14T06:18:11.009Z,22.20
2018-06-14T06:19:10.919Z,21.85
2018-06-14T06:20:10.827Z,22.18
2018-06-14T06:21:10.751Z,22.70
2018-06-14T06:22:10.660Z,22.25
2018-06-14T06:23:10.567Z,21.70
2018-06-14T06:24:10.477Z,21.33
2018-06-14T06:25:10.390Z,20.95
2018-06-14T06:26:10.319Z,21.40
2018-06-14T06:27:10.205Z,22.04
2018-06-14T06:28:10.114Z,22.48
2018-06-14T06:29:10.023Z,22.32
2018-06-14T06:30:09.944Z,22.36
2018-06-14T06:31:09.854Z,22.69
2018-06-14T06:32:09.763Z,23.10
2018-06-14T06:33:09.684Z,23.34
2018-06-14T06:34:09.581Z,23.61
2018-06-14T06:35:09.491Z,23.91
2018-06-14T06:36:09.400Z,24.02
2018-06-14T06:37:09.321Z,24.16
2018-06-14T06:38:09.231Z,24.18
2018-06-14T06:39:09.140Z,24.40
2018-06-14T06:40:09.049Z,24.91
2018-06-14T06:41:08.959Z,25.25
2018-06-14T06:42:09.130Z,25.50
2018-06-14T06:43:08.789Z,25.80
2018-06-14T06:44:08.699Z,25.28
2018-06-14T06:45:08.625Z,24.57
2018-06-14T06:46:08.529Z,24.38
2018-06-14T06:47:08.438Z,24.01
2018-06-14T06:48:08.348Z,23.71
2018-06-14T06:49:08.269Z,23.24
2018-06-14T06:50:08.178Z,23.47
2018-06-14T06:51:08.089Z,23.96
2018-06-14T06:52:08.010Z,24.11
2018-06-14T06:53:07.943Z,24.21
2018-06-14T06:54:07.828Z,24.26
2018-06-14T06:55:07.750Z,24.32
2018-06-14T06:56:07.658Z,24.58
2018-06-14T06:57:07.569Z,24.65
2018-06-14T06:58:07.490Z,24.53
2018-06-14T06:59:07.400Z,23.50
2018-06-14T07:00:07.309Z,23.28
2018-06-14T07:01:07.230Z,24.18
2018-06-14T07:02:07.138Z,25.14
2018-06-14T07:03:07.060Z,25.93
2018-06-14T07:04:06.971Z,25.13
2018-06-14T07:05:06.880Z,26.29
2018-06-14T07:06:06.894Z,26.99
2018-06-14T07:07:06.712Z,26.26
2018-06-14T07:08:06.633Z,25.65
2018-06-14T07:09:06.541Z,25.95
2018-06-14T07:10:06.462Z,24.98
2018-06-14T07:11:06.377Z,24.16
2018-06-14T07:12:06.281Z,23.56
2018-06-14T07:13:06.202Z,22.73
2018-06-14T07:14:06.115Z,22.22
2018-06-14T07:15:06.034Z,21.70
2018-06-14T07:16:05.943Z,21.50
2018-06-14T07:17:05.852Z,21.64
2018-06-14T07:18:05.774Z,22.17
2018-06-14T07:19:05.684Z,21.77
2018-06-14T07:20:05.592Z,21.67
2018-06-14T07:21:05.514Z,21.37
2018-06-14T07:22:05.470Z,20.93
2018-06-14T07:23:05.333Z,20.65
2018-06-14T07:24:05.241Z,20.60
2018-06-14T07:25:05.162Z,20.50
2018-06-14T07:26:05.073Z,20.44
2018-06-14T07:27:04.981Z,20.32
2018-06-14T07:28:04.890Z,20.29
2018-06-14T07:29:04.813Z,20.24
2018-06-14T07:30:04.721Z,20.32
2018-06-14T07:31:04.630Z,21.95
2018-06-14T07:32:04.552Z,23.39
2018-06-14T07:33:04.450Z,23.98
2018-06-14T07:34:04.359Z,23.76
2018-06-14T07:35:04.278Z,23.34
2018-06-14T07:36:04.190Z,23.02
2018-06-14T07:37:04.097Z,22.29
2018-06-14T07:38:04.008Z,21.88
2018-06-14T07:39:03.916Z,21.82
2018-06-14T07:40:03.838Z,21.42
2018-06-14T07:41:03.747Z,21.64
2018-06-14T07:42:03.656Z,21.48
2018-06-14T07:43:03.615Z,21.46
2018-06-14T07:44:03.474Z,21.52
2018-06-14T07:45:03.384Z,21.77
2018-06-14T07:46:03.307Z,21.82
2018-06-14T07:47:03.214Z,21.69
2018-06-14T07:48:03.124Z,21.70
2018-06-14T07:49:03.034Z,21.57
2018-06-14T07:50:02.943Z,21.36
2018-06-14T07:51:02.851Z,20.90
2018-06-14T07:52:02.775Z,20.62
2018-06-14T07:53:02.683Z,20.77
2018-06-14T07:54:02.604Z,20.78
2018-06-14T07:55:02.501Z,20.99
2018-06-14T07:56:02.411Z,21.18
2018-06-14T07:57:02.319Z,21.11
2018-06-14T07:58:02.228Z,20.96
2018-06-14T07:59:02.138Z,20.87
2018-06-14T08:00:02.049Z,20.97
2018-06-14T08:01:01.956Z,21.40
2018-06-14T08:02:01.879Z,22.87
2018-06-14T08:03:01.789Z,23.99
2018-06-14T08:04:01.696Z,24.86
2018-06-14T08:05:01.606Z,25.48
2018-06-14T08:06:01.516Z,25.90
2018-06-14T08:07:01.425Z,25.68
2018-06-14T08:08:01.333Z,26.21
2018-06-14T08:09:01.242Z,26.07
2018-06-14T08:10:01.151Z,25.18
2018-06-14T08:11:01.073Z,24.30
2018-06-14T08:12:00.995Z,23.88
2018-06-14T08:13:00.891Z,23.73
2018-06-14T08:14:00.799Z,23.25
2018-06-14T08:15:00.721Z,23.27
2018-06-14T08:16:00.632Z,23.23
2018-06-14T08:17:00.539Z,23.15
2018-06-14T08:18:00.450Z,22.81
2018-06-14T08:19:00.358Z,22.70
2018-06-14T08:20:00.279Z,21.92
2018-06-14T08:21:00.190Z,21.72
2018-06-14T08:22:00.098Z,23.08
2018-06-14T08:23:00.010Z,23.91
2018-06-14T08:23:59.917Z,23.84
2018-06-14T08:24:59.837Z,24.28
2018-06-14T08:25:59.748Z,24.98
2018-06-14T08:26:59.656Z,26.09
2018-06-14T08:27:59.566Z,26.95
2018-06-14T08:28:59.476Z,27.30
2018-06-14T08:29:59.385Z,27.59
2018-06-14T08:30:59.307Z,28.12
2018-06-14T08:31:59.215Z,28.27
2018-06-14T08:32:59.125Z,28.11
2018-06-14T08:33:59.037Z,27.17
2018-06-14T08:34:58.944Z,25.33
2018-06-14T08:35:58.852Z,24.23
2018-06-14T08:36:58.762Z,24.35
2018-06-14T08:37:58.706Z,23.96
2018-06-14T08:38:58.592Z,24.29
2018-06-14T08:39:58.503Z,24.21
2018-06-14T08:40:58.410Z,24.61
2018-06-14T08:41:58.320Z,24.38
2018-06-14T08:42:58.242Z,24.53
2018-06-14T08:43:58.150Z,24.98
2018-06-14T08:44:58.063Z,26.03
2018-06-14T08:45:57.969Z,26.25
2018-06-14T08:46:57.892Z,26.22
2018-06-14T08:47:57.802Z,26.80
2018-06-14T08:48:57.709Z,26.37
2018-06-14T08:49:57.630Z,26.38
2018-06-14T08:50:57.541Z,27.29
2018-06-14T08:51:57.461Z,27.44
2018-06-14T08:52:57.370Z,28.19
2018-06-14T08:53:57.291Z,28.60
2018-06-14T08:54:57.202Z,28.38
2018-06-14T08:55:57.111Z,28.23
2018-06-14T08:56:57.033Z,28.64
2018-06-14T08:57:56.953Z,28.10
2018-06-14T08:58:56.863Z,27.80
2018-06-14T08:59:56.785Z,27.35
2018-06-14T09:00:56.694Z,27.05
2018-06-14T09:01:56.608Z,27.11
2018-06-14T09:02:56.526Z,27.74
2018-06-14T09:03:56.447Z,27.80
2018-06-14T09:04:56.368Z,26.78
2018-06-14T09:05:56.295Z,26.18
2018-06-14T09:06:56.198Z,26.34
2018-06-14T09:07:56.110Z,26.25
2018-06-14T09:08:56.030Z,26.66
2018-06-14T09:09:55.953Z,27.12
2018-06-14T09:10:55.862Z,27.33
2018-06-14T09:11:55.783Z,27.93
2018-06-14T09:12:55.704Z,28.22
2018-06-14T09:13:55.613Z,28.66
2018-06-14T09:14:55.535Z,28.98
2018-06-14T09:15:55.457Z,29.45
2018-06-14T09:16:55.368Z,29.63
2018-06-14T09:17:55.289Z,29.91
2018-06-14T09:18:55.221Z,29.35
2018-06-14T09:19:55.130Z,29.42
2018-06-14T09:20:55.040Z,29.35
2018-06-14T09:21:54.962Z,28.60
2018-06-14T09:22:54.884Z,28.56
2018-06-14T09:23:54.793Z,28.79
2018-06-14T09:24:54.714Z,28.79
2018-06-14T09:25:54.636Z,29.29
2018-06-14T09:26:54.557Z,29.91
2018-06-14T09:27:54.479Z,29.78
2018-06-14T09:28:54.392Z,30.08
2018-06-14T09:29:54.320Z,29.87
2018-06-14T09:30:54.233Z,29.73
2018-06-14T09:31:54.155Z,28.97
2018-06-14T09:32:54.083Z,29.10
2018-06-14T09:33:53.986Z,29.22
2018-06-14T09:34:53.906Z,28.89
2018-06-14T09:35:53.851Z,29.14
2018-06-14T09:36:53.749Z,28.37
2018-06-14T09:37:53.671Z,28.59
2018-06-14T09:38:53.592Z,29.08
2018-06-14T09:39:53.514Z,29.34
2018-06-14T09:40:53.476Z,28.82
2018-06-14T09:41:53.348Z,28.66
2018-06-14T09:42:53.334Z,28.39
2018-06-14T09:43:53.188Z,27.77
2018-06-14T09:44:53.111Z,27.18
2018-06-14T09:45:53.033Z,25.81
2018-06-14T09:46:52.954Z,25.26
2018-06-14T09:47:52.875Z,24.73
2018-06-14T09:48:52.797Z,25.96
2018-06-14T09:49:52.706Z,26.40
2018-06-14T09:50:52.627Z,26.52
2018-06-14T09:51:52.550Z,27.10
2018-06-14T09:52:52.470Z,27.26
2018-06-14T09:53:52.392Z,28.07
2018-06-14T09:54:52.303Z,27.42
2018-06-14T09:55:52.225Z,27.36
2018-06-14T09:56:52.146Z,26.38
2018-06-14T09:57:52.068Z,26.15
2018-06-14T09:58:51.989Z,26.60
2018-06-14T09:59:51.899Z,26.36
2018-06-14T10:00:51.820Z,26.96
2018-06-14T10:01:51.992Z,27.70
2018-06-14T10:02:51.665Z,28.00
2018-06-14T10:03:51.584Z,27.52
2018-06-14T10:04:51.507Z,27.44
2018-06-14T10:05:51.428Z,27.40
2018-06-14T10:06:51.338Z,28.08
2018-06-14T10:07:51.260Z,27.92
2018-06-14T10:08:51.180Z,28.00
2018-06-14T10:09:51.102Z,27.40
2018-06-14T10:10:51.024Z,26.78
2018-06-14T10:11:50.946Z,26.36
2018-06-14T10:12:50.868Z,24.98
2018-06-14T10:13:50.777Z,25.55
2018-06-14T10:14:50.701Z,25.50
2018-06-14T10:15:50.620Z,25.78
2018-06-14T10:16:50.545Z,26.25
2018-06-14T10:17:50.466Z,25.46
2018-06-14T10:18:50.385Z,25.54
2018-06-14T10:19:50.294Z,26.22
2018-06-14T10:20:50.217Z,26.95
2018-06-14T10:21:50.176Z,27.52
2018-06-14T10:22:50.061Z,28.10
2018-06-14T10:23:49.982Z,28.19
2018-06-14T10:24:49.903Z,27.87
2018-06-14T10:25:49.825Z,28.35
2018-06-14T10:26:49.746Z,28.17
2018-06-14T10:27:49.658Z,28.41
2018-06-14T10:28:49.577Z,28.07
2018-06-14T10:29:49.512Z,28.41
2018-06-14T10:30:49.421Z,27.78
2018-06-14T10:31:49.343Z,27.44
2018-06-14T10:32:49.263Z,27.17
2018-06-14T10:33:49.185Z,27.95
2018-06-14T10:34:49.107Z,27.98
2018-06-14T10:35:49.029Z,27.63
2018-06-14T10:36:48.950Z,27.22
2018-06-14T10:37:48.872Z,27.48
2018-06-14T10:38:48.806Z,27.47
2018-06-14T10:39:48.716Z,27.63
2018-06-14T10:40:48.650Z,27.44
2018-06-14T10:41:48.572Z,27.30
2018-06-14T10:42:48.497Z,27.70
2018-06-14T10:43:48.415Z,28.48
2018-06-14T10:44:48.337Z,28.47
2018-06-14T10:45:48.259Z,28.41
2018-06-14T10:46:48.181Z,28.59
2018-06-14T10:47:48.102Z,28.79
2018-06-14T10:48:48.024Z,29.61
2018-06-14T10:49:47.947Z,30.16
2018-06-14T10:50:47.868Z,30.51
2018-06-14T10:51:47.794Z,30.12
2018-06-14T10:52:47.711Z,30.92
2018-06-14T10:53:47.632Z,31.71
2018-06-14T10:54:47.565Z,31.64
2018-06-14T10:55:47.478Z,31.51
2018-06-14T10:56:47.398Z,31.58
2018-06-14T10:57:47.331Z,30.78
2018-06-14T10:58:47.267Z,30.31
2018-06-14T10:59:47.174Z,30.25
2018-06-14T11:00:47.098Z,30.47
2018-06-14T11:01:47.018Z,31.21
2018-06-14T11:02:46.939Z,31.71
2018-06-14T11:03:46.861Z,32.07
2018-06-14T11:04:46.782Z,31.84
2018-06-14T11:05:46.704Z,32.22
2018-06-14T11:06:46.629Z,32.60
2018-06-14T11:07:46.548Z,32.90
2018-06-14T11:08:46.469Z,32.77
2018-06-14T11:09:46.391Z,32.40
2018-06-14T11:10:46.313Z,32.56
2018-06-14T11:11:46.236Z,32.45
2018-06-14T11:12:46.170Z,32.31
2018-06-14T11:13:46.091Z,32.52
2018-06-14T11:14:46.014Z,32.74
2018-06-14T11:15:45.935Z,32.80
2018-06-14T11:16:45.857Z,32.92
2018-06-14T11:17:45.778Z,32.40
2018-06-14T11:18:45.700Z,32.27
2018-06-14T11:19:45.621Z,30.91
2018-06-14T11:20:45.544Z,30.65
2018-06-14T11:21:45.465Z,31.05
2018-06-14T11:22:45.387Z,30.92
2018-06-14T11:23:45.320Z,30.92
2018-06-14T11:24:45.241Z,30.47
2018-06-14T11:25:45.163Z,30.10
2018-06-14T11:26:45.085Z,30.25
2018-06-14T11:27:45.024Z,30.69
2018-06-14T11:28:44.929Z,31.03
2018-06-14T11:29:44.851Z,30.65
2018-06-14T11:30:44.774Z,30.90
2018-06-14T11:31:44.695Z,30.35
2018-06-14T11:32:44.619Z,29.26
2018-06-14T11:33:44.537Z,29.38
2018-06-14T11:34:44.459Z,29.73
2018-06-14T11:35:44.380Z,30.15
2018-06-14T11:36:44.315Z,30.66
2018-06-14T11:37:44.224Z,30.94
2018-06-14T11:38:44.146Z,31.39
2018-06-14T11:39:44.069Z,31.31
2018-06-14T11:40:43.990Z,31.40
2018-06-14T11:41:43.925Z,31.71
2018-06-14T11:42:43.846Z,31.51
2018-06-14T11:43:43.767Z,31.55
2018-06-14T11:44:43.688Z,31.29
2018-06-14T11:45:43.611Z,31.46
2018-06-14T11:46:43.533Z,31.37
2018-06-14T11:47:43.454Z,30.91
2018-06-14T11:48:43.376Z,30.19
2018-06-14T11:49:43.297Z,29.94
2018-06-14T11:50:43.218Z,29.81
2018-06-14T11:51:43.140Z,29.90
2018-06-14T11:52:43.062Z,30.18
2018-06-14T11:53:42.984Z,30.47
2018-06-14T11:54:42.906Z,30.90
2018-06-14T11:55:42.831Z,30.83
2018-06-14T11:56:42.749Z,30.40
2018-06-14T11:57:42.671Z,30.66
2018-06-14T11:58:42.594Z,30.47
2018-06-14T11:59:42.515Z,30.10
2018-06-14T12:00:42.437Z,29.10
2018-06-14T12:01:42.421Z,28.20
2018-06-14T12:02:42.292Z,27.65
2018-06-14T12:03:42.213Z,27.45
2018-06-14T12:04:42.135Z,27.68
2018-06-14T12:05:42.058Z,27.42
2018-06-14T12:06:41.978Z,27.37
2018-06-14T12:07:41.899Z,26.95
2018-06-14T12:08:41.821Z,26.78
2018-06-14T12:09:41.743Z,26.55
2018-06-14T12:10:41.667Z,26.03
2018-06-14T12:11:41.588Z,25.54
2018-06-14T12:12:41.508Z,25.08
2018-06-14T12:13:41.429Z,24.61
2018-06-14T12:14:41.351Z,24.38
2018-06-14T12:15:41.274Z,24.10
2018-06-14T12:16:41.195Z,24.02
2018-06-14T12:17:41.116Z,23.84
2018-06-14T12:18:41.039Z,23.96
2018-06-14T12:19:40.960Z,23.87
2018-06-14T12:20:40.881Z,23.95
2018-06-14T12:21:40.803Z,24.03
2018-06-14T12:22:40.724Z,24.16
2018-06-14T12:23:40.646Z,24.33
2018-06-14T12:24:40.557Z,24.54
2018-06-14T12:25:40.479Z,24.33
2018-06-14T12:26:40.401Z,24.17
2018-06-14T12:27:40.322Z,23.66
2018-06-14T12:28:40.230Z,23.15
2018-06-14T12:29:40.153Z,23.15
2018-06-14T12:30:40.073Z,22.81
2018-06-14T12:31:40.032Z,22.65
2018-06-14T12:32:39.905Z,22.50
2018-06-14T12:33:39.813Z,22.81
2018-06-14T12:34:39.736Z,22.96
2018-06-14T12:35:39.645Z,23.03
2018-06-14T12:36:39.816Z,23.09
2018-06-14T12:37:39.486Z,22.99
2018-06-14T12:38:39.392Z,22.81
2018-06-14T12:39:39.307Z,22.96
2018-06-14T12:40:39.215Z,23.02
2018-06-14T12:41:39.137Z,22.88
2018-06-14T12:42:39.047Z,22.70
2018-06-14T12:43:38.955Z,22.65
2018-06-14T12:44:38.878Z,22.57
2018-06-14T12:45:38.787Z,22.70
2018-06-14T12:46:38.695Z,22.51
2018-06-14T12:47:38.610Z,22.44
2018-06-14T12:48:38.527Z,22.41
2018-06-14T12:49:38.435Z,22.47
2018-06-14T12:50:38.345Z,22.36
2018-06-14T12:51:38.258Z,22.51